Magnesia Prefecture, Greece

12:55 AM EEST on May 25, 2015 (GMT +0300)
Almiros Air Base | | Change Station
CLOSE
Current Station
Airport
Location: Anchialos,
Elevation: 82 ft
Nearby Weather Stations

Elev 82 ft 39.22 °N, 22.79 °E | Updated 1 hour ago

Partly Cloudy
Partly Cloudy
68 °F
Feels Like 68 °F
N
13
Wind Variable Wind from West

Today
High -- | Low -- °F
--% Chance of Precip.
Yesterday
High -- | Low -- °F
Precip. -- in
6:08 AM 8:43 PM
Waxing Crescent, 42% visible
Pressure 29.74 in
Visibility 6.2 miles
Clouds Few 3000 ft
Dew Point 45 °F
Humidity 43%
Rainfall 0.00 in
Snow Depth Not available.
UV 0 out of 12
Pollen Not available.
Air Quality Not available.
Flu Activity Not available.
METAR LGBL 242050Z 28011KT 9999 FEW030 20/07 Q1007

More Conditions Fewer Conditions

Pressure 29.74 in
Visibility 6.2 miles
Clouds Few 3000 ft
Dew Point 45 °F
Humidity 43%
Rainfall 0.00 in
Snow Depth Not available.
UV 0 out of 12
Pollen Not available.
Air Quality Not available.
Flu Activity Not available.
METAR LGBL 242050Z 28011KT 9999 FEW030 20/07 Q1007

More Conditions Fewer Conditions

10-Day Weather Forecast

Almanac

Astronomy

May. 25, 2015 Rise Set
Actual Time
Civil Twilight
Nautical Twilight
Astronomical Twilight
Moon
Length of Visible Light
Length of Day
Tomorrow will be .
, % of the Moon is Illuminated

Today's Extremes

Country Highs Country Lows

Community

WunderPhotos

Upload Photos

1,823,876 photos uploaded!

WunderBlogs® & News

Nearby

Air Quality

  Air Quality AQ Index Pollutant
Not available.

Snow Depth

Station Depth Elevation

Earthquake Activity

City Distance Mag. Time & Date
Minimum magnitude displayed is 2.5.

Coastal Water Temperatures

Place Temperature

Stations

Nearby Weather Stations

Station Location Temp. Windchill Dew Point Humidity Wind Precip. Elev Updated Type